Time;durP1;ratioP1;P1;durP2;ratioP2;P2;SDS_P1;SDS_P2;PMS_P1;PMS_P2;Temp;Humidity;BMP_temperature;BMP_pressure;BME280_temperature;BME280_humidity;BME280_pressure;Samples;Min_cycle;Max_cycle;Signal;HPM_P1;HPM_P2
2021/12/11 00:00:08;;;;;;;16.88;11.88;;;;;;;-1.25;98.63;99678.88;688946;28;3414;-54
2021/12/11 00:00:44;;;;;;;17.23;12.63;;;;;;;-1.24;99.30;99678.06;691246;28;1182;-54
2021/12/11 00:01:09;;;;;;;16.83;12.65;;;;;;;-1.21;99.90;99681.56;691566;28;4768;-55
2021/12/11 00:01:42;;;;;;;17.30;12.50;;;;;;;-1.21;99.11;99679.00;692329;28;1183;-52
2021/12/11 00:02:10;;;;;;;15.85;12.57;;;;;;;-1.27;98.90;99680.56;689958;28;1085;-53
2021/12/11 00:02:33;;;;;;;16.17;12.93;;;;;;;-1.28;98.23;99673.69;688627;28;3366;-51
2021/12/11 00:03:18;;;;;;;15.35;12.35;;;;;;;-1.24;98.81;99681.50;686194;28;3551;-52
2021/12/11 00:03:43;;;;;;;17.13;12.63;;;;;;;-1.25;98.57;99676.31;686277;28;1263;-53
2021/12/11 00:04:06;;;;;;;16.73;12.52;;;;;;;-1.25;98.90;99679.75;688216;28;4494;-51
2021/12/11 00:04:32;;;;;;;16.75;12.25;;;;;;;-1.26;99.01;99682.28;689363;28;1395;-52
2021/12/11 00:04:56;;;;;;;15.48;12.07;;;;;;;-1.25;99.11;99679.75;689768;28;2187;-55
2021/12/11 00:05:17;;;;;;;16.90;12.48;;;;;;;-1.26;98.90;99678.03;692136;28;3125;-52
2021/12/11 00:05:39;;;;;;;16.58;12.32;;;;;;;-1.28;98.25;99686.50;691090;28;3491;-52
2021/12/11 00:06:17;;;;;;;16.50;12.45;;;;;;;-1.30;98.45;99683.91;691321;28;1213;-51
2021/12/11 00:06:44;;;;;;;15.05;12.18;;;;;;;-1.33;98.73;99681.25;690865;28;1191;-51
2021/12/11 00:07:08;;;;;;;15.57;12.07;;;;;;;-1.34;98.52;99684.66;690711;28;4424;-54
2021/12/11 00:07:30;;;;;;;15.77;12.40;;;;;;;-1.32;98.80;99685.53;692892;28;1297;-52
2021/12/11 00:07:51;;;;;;;16.58;12.80;;;;;;;-1.28;99.10;99689.06;687448;28;1374;-51
2021/12/11 00:08:18;;;;;;;16.30;12.50;;;;;;;-1.24;99.47;99689.19;688072;28;3326;-51
2021/12/11 00:08:41;;;;;;;18.35;12.90;;;;;;;-1.23;99.89;99687.50;688301;28;1186;-54
2021/12/11 00:09:12;;;;;;;17.05;12.75;;;;;;;-1.20;99.35;99687.59;687815;28;1259;-55
2021/12/11 00:09:38;;;;;;;15.85;11.98;;;;;;;-1.15;99.42;99686.03;683558;28;1232;-55
2021/12/11 00:10:09;;;;;;;14.13;11.80;;;;;;;-1.08;99.17;99687.91;687938;28;4448;-54
2021/12/11 00:10:37;;;;;;;15.63;12.18;;;;;;;-1.04;98.97;99688.84;684618;28;1204;-53
2021/12/11 00:11:09;;;;;;;15.10;12.20;;;;;;;-1.00;99.18;99688.09;685036;28;3154;-52
2021/12/11 00:11:35;;;;;;;15.77;12.30;;;;;;;-1.05;98.55;99693.13;688258;28;1255;-53
2021/12/11 00:12:01;;;;;;;15.55;11.63;;;;;;;-1.08;98.25;99692.16;687653;28;1455;-51
2021/12/11 00:12:32;;;;;;;14.30;12.15;;;;;;;-1.13;98.34;99689.47;687449;28;1235;-52
2021/12/11 00:12:59;;;;;;;15.68;12.00;;;;;;;-1.15;98.72;99696.28;690249;28;1217;-52
2021/12/11 00:13:29;;;;;;;15.88;11.80;;;;;;;-1.17;98.63;99692.78;683819;28;6445;-51
2021/12/11 00:13:53;;;;;;;15.80;11.65;;;;;;;-1.17;99.15;99694.50;684479;28;3051;-51
2021/12/11 00:14:15;;;;;;;14.45;11.95;;;;;;;-1.14;99.07;99695.44;684593;28;2316;-53
2021/12/11 00:14:39;;;;;;;14.40;11.65;;;;;;;-1.12;98.92;99693.78;684770;28;1076;-53
2021/12/11 00:15:06;;;;;;;15.73;12.20;;;;;;;-1.09;99.48;99699.00;684681;28;1096;-52
2021/12/11 00:15:33;;;;;;;16.00;11.90;;;;;;;-1.13;99.18;99698.88;690865;28;1212;-51
2021/12/11 00:15:55;;;;;;;16.40;11.43;;;;;;;-1.16;99.09;99699.66;690983;28;1274;-55
2021/12/11 00:16:18;;;;;;;15.88;11.20;;;;;;;-1.20;99.24;99697.84;690226;28;4435;-52
2021/12/11 00:16:42;;;;;;;16.23;11.45;;;;;;;-1.17;98.75;99697.91;690497;28;3199;-54
2021/12/11 00:17:03;;;;;;;15.82;11.90;;;;;;;-1.11;99.18;99697.22;689551;28;2246;-51
2021/12/11 00:17:28;;;;;;;14.98;12.38;;;;;;;-1.07;99.12;99699.88;690723;28;1351;-52
2021/12/11 00:17:55;;;;;;;13.70;11.88;;;;;;;-1.05;98.87;99699.97;691035;28;1222;-51
2021/12/11 00:18:25;;;;;;;14.93;11.65;;;;;;;-1.12;98.52;99696.34;690381;28;1056;-52
2021/12/11 00:18:51;;;;;;;15.43;11.80;;;;;;;-1.17;98.93;99699.63;689662;28;1309;-51
2021/12/11 00:19:16;;;;;;;15.38;11.80;;;;;;;-1.21;99.69;99696.97;689380;28;5835;-53
2021/12/11 00:19:39;;;;;;;15.73;11.63;;;;;;;-1.22;99.98;99704.59;689498;28;3189;-52
2021/12/11 00:20:02;;;;;;;16.08;12.10;;;;;;;-1.23;99.35;99702.91;689420;28;1258;-51
2021/12/11 00:20:25;;;;;;;15.43;12.00;;;;;;;-1.24;99.48;99711.41;688832;28;1421;-52
2021/12/11 00:20:59;;;;;;;15.05;12.05;;;;;;;-1.28;98.95;99709.59;689225;28;2933;-51
2021/12/11 00:21:23;;;;;;;14.75;11.68;;;;;;;-1.29;100.00;99708.69;689879;28;1115;-55
2021/12/11 00:21:46;;;;;;;16.20;12.10;;;;;;;-1.29;100.00;99718.09;687664;28;1092;-51
2021/12/11 00:22:15;;;;;;;15.90;12.70;;;;;;;-1.26;100.00;99713.94;687178;28;5557;-53
2021/12/11 00:22:41;;;;;;;16.60;12.15;;;;;;;-1.16;99.67;99709.94;686729;28;3729;-54
2021/12/11 00:23:03;;;;;;;16.00;12.85;;;;;;;-1.13;99.13;99716.84;687312;28;1702;-51
2021/12/11 00:23:31;;;;;;;14.48;12.43;;;;;;;-1.11;99.54;99717.72;687582;28;1307;-54
2021/12/11 00:24:11;;;;;;;16.80;11.70;;;;;;;-1.16;99.32;99717.63;690632;28;1183;-55
2021/12/11 00:24:33;;;;;;;15.43;11.57;;;;;;;-1.18;99.57;99718.41;690481;28;1234;-52
2021/12/11 00:25:00;;;;;;;15.32;12.45;;;;;;;-1.17;99.78;99725.28;690223;28;1186;-54
2021/12/11 00:25:20;;;;;;;14.80;12.15;;;;;;;-1.16;99.73;99715.06;688037;28;4824;-54
2021/12/11 00:25:43;;;;;;;15.67;12.23;;;;;;;-1.15;99.72;99727.06;689590;28;1279;-52
2021/12/11 00:26:06;;;;;;;17.13;12.30;;;;;;;-1.17;100.00;99723.56;690824;28;1280;-56
2021/12/11 00:26:40;;;;;;;15.63;11.88;;;;;;;-1.18;99.68;99723.53;689681;28;1242;-53
2021/12/11 00:27:08;;;;;;;16.40;12.38;;;;;;;-1.22;99.81;99725.13;689759;28;1124;-51
2021/12/11 00:27:30;;;;;;;15.45;12.00;;;;;;;-1.24;99.45;99726.78;687247;28;1320;-53
2021/12/11 00:27:58;;;;;;;16.00;12.02;;;;;;;-1.25;99.80;99727.63;683676;28;1135;-53
2021/12/11 00:28:19;;;;;;;15.27;12.20;;;;;;;-1.24;99.91;99726.78;684037;28;4873;-53
2021/12/11 00:28:49;;;;;;;15.65;12.35;;;;;;;-1.21;99.35;99732.00;684389;28;1092;-51
2021/12/11 00:29:11;;;;;;;16.58;12.48;;;;;;;-1.20;100.00;99728.63;684481;28;1131;-51
2021/12/11 00:29:33;;;;;;;16.50;12.45;;;;;;;-1.20;99.86;99731.19;685498;28;1287;-52
2021/12/11 00:29:54;;;;;;;16.35;11.93;;;;;;;-1.17;99.53;99733.81;687724;28;1028;-55
2021/12/11 00:30:22;;;;;;;15.93;11.55;;;;;;;-1.13;99.55;99735.66;687373;28;1084;-52
2021/12/11 00:30:45;;;;;;;16.77;12.30;;;;;;;-1.12;99.80;99734.84;687676;28;1282;-52
2021/12/11 00:31:06;;;;;;;14.70;12.50;;;;;;;-1.14;99.92;99733.91;684993;28;4852;-51
2021/12/11 00:31:28;;;;;;;15.60;12.15;;;;;;;-1.15;99.83;99731.31;685885;28;1092;-54
2021/12/11 00:32:04;;;;;;;16.27;12.20;;;;;;;-1.17;99.72;99733.81;684605;28;1053;-54
2021/12/11 00:32:28;;;;;;;16.48;11.93;;;;;;;-1.15;99.12;99739.88;683184;28;1090;-52
2021/12/11 00:32:58;;;;;;;18.00;11.85;;;;;;;-1.04;99.45;99738.47;683398;28;1065;-53
2021/12/11 00:33:23;;;;;;;16.45;12.10;;;;;;;-0.93;98.97;99735.31;684798;28;1076;-52
2021/12/11 00:33:45;;;;;;;15.88;11.68;;;;;;;-0.92;98.46;99735.34;686568;28;2936;-52
2021/12/11 00:34:10;;;;;;;14.80;11.35;;;;;;;-0.90;98.83;99735.38;684880;28;4979;-52
2021/12/11 00:34:33;;;;;;;14.52;11.50;;;;;;;-0.90;98.97;99735.38;687013;28;1226;-55
2021/12/11 00:34:58;;;;;;;16.15;11.98;;;;;;;-0.96;99.58;99745.50;687889;28;1239;-54
2021/12/11 00:35:23;;;;;;;16.60;12.27;;;;;;;-1.04;99.72;99741.03;685878;28;1360;-52
2021/12/11 00:35:44;;;;;;;15.10;11.93;;;;;;;-1.09;100.00;99747.75;688149;28;1033;-52
2021/12/11 00:36:15;;;;;;;15.35;11.70;;;;;;;-1.13;99.99;99745.91;689366;28;1082;-53
2021/12/11 00:36:35;;;;;;;15.85;12.00;;;;;;;-1.12;99.93;99742.53;689843;28;3033;-54
2021/12/11 00:37:04;;;;;;;15.25;11.88;;;;;;;-1.06;99.63;99752.94;689336;28;4373;-51
2021/12/11 00:37:26;;;;;;;15.52;12.25;;;;;;;-1.01;99.48;99739.38;688819;28;921;-51
2021/12/11 00:37:48;;;;;;;15.15;12.18;;;;;;;-0.97;99.34;99744.66;690730;28;1020;-52
2021/12/11 00:38:21;;;;;;;14.27;11.68;;;;;;;-0.91;98.82;99749.94;689509;28;1122;-52
2021/12/11 00:38:42;;;;;;;14.95;11.95;;;;;;;-0.89;99.00;99749.97;688497;28;1714;-51
2021/12/11 00:39:13;;;;;;;14.53;11.40;;;;;;;-0.89;98.92;99750.84;690968;28;1305;-55
2021/12/11 00:39:43;;;;;;;15.40;11.57;;;;;;;-0.90;99.31;99748.22;688907;28;3368;-52
2021/12/11 00:40:15;;;;;;;16.75;11.75;;;;;;;-0.94;99.71;99754.09;691808;28;4649;-51
2021/12/11 00:40:36;;;;;;;15.73;12.02;;;;;;;-0.97;99.95;99756.59;689288;28;1222;-52
2021/12/11 00:40:56;;;;;;;15.68;11.65;;;;;;;-0.97;99.92;99756.59;689395;28;1235;-51
2021/12/11 00:41:21;;;;;;;16.02;11.65;;;;;;;-0.95;99.81;99760.09;690829;28;1091;-54
2021/12/11 00:41:49;;;;;;;15.70;12.00;;;;;;;-0.92;99.87;99760.16;687805;28;1106;-52
2021/12/11 00:42:12;;;;;;;15.85;12.35;;;;;;;-0.92;99.92;99753.31;686539;28;2072;-53
2021/12/11 00:42:34;;;;;;;15.10;12.05;;;;;;;-0.93;100.00;99769.56;689233;28;3595;-53
2021/12/11 00:42:57;;;;;;;15.70;12.20;;;;;;;-0.96;100.00;99766.03;690050;28;1289;-52
2021/12/11 00:43:23;;;;;;;17.63;12.15;;;;;;;-1.00;100.00;99766.78;687865;28;4687;-52
2021/12/11 00:43:46;;;;;;;16.00;12.40;;;;;;;-1.03;100.00;99768.41;688276;28;1519;-53
2021/12/11 00:44:07;;;;;;;16.48;12.15;;;;;;;-1.02;100.00;99777.00;687073;28;1138;-51
2021/12/11 00:44:37;;;;;;;17.77;12.00;;;;;;;-1.00;100.00;99769.34;687585;28;1127;-51
2021/12/11 00:44:59;;;;;;;17.58;12.35;;;;;;;-0.98;99.91;99767.66;685565;28;3182;-53
2021/12/11 00:45:23;;;;;;;17.02;12.13;;;;;;;-0.94;99.67;99765.25;686818;28;2315;-53
2021/12/11 00:45:45;;;;;;;15.82;11.95;;;;;;;-0.90;99.89;99767.06;685316;28;1466;-52
2021/12/11 00:46:10;;;;;;;15.05;12.38;;;;;;;-0.91;100.00;99773.03;685116;28;4358;-51
2021/12/11 00:46:32;;;;;;;16.50;12.52;;;;;;;-0.92;99.38;99773.00;687548;28;980;-51
2021/12/11 00:46:52;;;;;;;16.55;12.45;;;;;;;-0.90;99.40;99773.88;687496;28;1104;-55
2021/12/11 00:47:26;;;;;;;15.13;11.73;;;;;;;-0.87;99.56;99774.84;686968;28;1632;-55
2021/12/11 00:48:08;;;;;;;14.96;11.82;;;;;;;-0.82;99.36;99772.41;687013;28;1268;-51
2021/12/11 00:48:29;;;;;;;17.30;12.13;;;;;;;-0.80;99.49;99765.63;688850;28;2047;-53
2021/12/11 00:48:50;;;;;;;15.73;12.27;;;;;;;-0.78;99.26;99769.09;690705;28;1119;-54
2021/12/11 00:49:17;;;;;;;14.83;12.23;;;;;;;-0.76;99.41;99770.00;689393;28;4443;-53
2021/12/11 00:49:45;;;;;;;15.80;12.30;;;;;;;-0.78;99.69;99774.22;686847;28;1036;-53
2021/12/11 00:50:11;;;;;;;17.50;12.35;;;;;;;-0.79;99.53;99771.63;686158;28;1182;-52
2021/12/11 00:50:38;;;;;;;15.25;12.35;;;;;;;-0.81;99.24;99783.56;686804;28;1250;-51
2021/12/11 00:51:03;;;;;;;15.00;11.88;;;;;;;-0.80;99.03;99778.44;686435;28;3576;-55
2021/12/11 00:51:24;;;;;;;15.43;11.82;;;;;;;-0.77;99.23;99775.97;686749;28;1134;-51
2021/12/11 00:51:50;;;;;;;16.90;12.13;;;;;;;-0.79;99.92;99780.19;690202;28;1072;-55
2021/12/11 00:52:10;;;;;;;15.95;11.77;;;;;;;-0.82;100.00;99772.41;689611;28;4409;-55
2021/12/11 00:52:40;;;;;;;16.80;12.37;;;;;;;-0.83;100.00;99780.94;689024;28;1327;-52
2021/12/11 00:53:10;;;;;;;16.70;12.70;;;;;;;-0.84;100.00;99783.44;689807;28;1108;-52
2021/12/11 00:53:36;;;;;;;15.30;12.32;;;;;;;-0.87;100.00;99785.13;690045;28;3171;-51
2021/12/11 00:53:58;;;;;;;17.92;13.68;;;;;;;-0.91;100.00;99785.84;688458;28;1038;-53
2021/12/11 00:54:18;;;;;;;17.33;13.23;;;;;;;-0.94;100.00;99788.34;689383;28;1163;-52
2021/12/11 00:54:42;;;;;;;16.53;12.77;;;;;;;-0.95;100.00;99786.59;687602;28;1055;-52
2021/12/11 00:55:17;;;;;;;16.42;12.77;;;;;;;-0.93;100.00;99784.06;685567;28;4514;-55
2021/12/11 00:55:44;;;;;;;18.52;12.45;;;;;;;-0.90;100.00;99785.03;687107;28;1047;-51
2021/12/11 00:56:27;;;;;;;16.58;12.63;;;;;;;-0.82;100.00;99781.81;686638;28;1174;-51
2021/12/11 00:56:49;;;;;;;15.88;12.98;;;;;;;-0.83;100.00;99786.06;689971;28;1119;-51
2021/12/11 00:57:11;;;;;;;15.07;12.13;;;;;;;-0.83;100.00;99786.06;689432;28;1002;-52
2021/12/11 00:57:32;;;;;;;15.38;12.18;;;;;;;-0.79;100.00;99787.91;689612;28;1151;-52
2021/12/11 00:58:13;;;;;;;15.45;12.00;;;;;;;-0.80;100.00;99786.16;690248;28;1257;-51
2021/12/11 00:58:36;;;;;;;16.05;12.68;;;;;;;-0.77;99.84;99793.94;688984;28;4868;-52
2021/12/11 00:59:00;;;;;;;17.70;12.43;;;;;;;-0.78;100.00;99787.03;688903;28;1068;-55
2021/12/11 00:59:21;;;;;;;16.98;12.52;;;;;;;-0.79;100.00;99793.03;688920;28;3175;-53
2021/12/11 00:59:41;;;;;;;15.90;12.32;;;;;;;-0.81;100.00;99796.38;690093;28;1036;-52
2021/12/11 01:00:12;;;;;;;15.60;12.63;;;;;;;-0.84;100.00;99789.47;688650;28;1503;-54
2021/12/11 01:00:39;;;;;;;16.88;12.80;;;;;;;-0.86;100.00;99796.22;689748;28;1262;-51
2021/12/11 01:01:17;;;;;;;16.77;12.85;;;;;;;-0.88;100.00;99795.34;686934;28;4341;-53
2021/12/11 01:01:46;;;;;;;15.48;12.30;;;;;;;-0.89;100.00;99798.72;689270;28;1176;-52
2021/12/11 01:02:08;;;;;;;17.60;13.25;;;;;;;-0.90;100.00;99794.41;686728;28;3164;-54
2021/12/11 01:02:28;;;;;;;17.70;13.45;;;;;;;-0.90;100.00;99804.69;685235;28;1902;-53
2021/12/11 01:02:52;;;;;;;18.05;13.30;;;;;;;-0.90;100.00;99807.25;684408;28;1423;-54
2021/12/11 01:03:21;;;;;;;17.05;12.82;;;;;;;-0.84;100.00;99811.66;684402;28;1341;-53
2021/12/11 01:03:55;;;;;;;15.60;12.30;;;;;;;-0.78;100.00;99804.16;683767;28;1128;-53
2021/12/11 01:04:20;;;;;;;15.35;11.90;;;;;;;-0.75;100.00;99807.69;685923;28;5020;-52
2021/12/11 01:04:41;;;;;;;17.33;12.30;;;;;;;-0.72;100.00;99800.06;689431;28;1021;-51
2021/12/11 01:05:08;;;;;;;15.68;12.30;;;;;;;-0.71;100.00;99801.81;689463;28;3366;-51
2021/12/11 01:05:35;;;;;;;15.15;12.20;;;;;;;-0.70;100.00;99802.66;689202;28;1436;-54
2021/12/11 01:05:59;;;;;;;16.65;12.40;;;;;;;-0.72;100.00;99805.19;689549;28;1123;-54
2021/12/11 01:06:23;;;;;;;15.30;12.40;;;;;;;-0.72;100.00;99806.88;688297;28;1220;-53
2021/12/11 01:06:57;;;;;;;16.33;12.35;;;;;;;-0.75;100.00;99809.38;689914;28;1221;-52
2021/12/11 01:07:21;;;;;;;18.65;13.35;;;;;;;-0.76;100.00;99812.75;688520;28;5055;-51
2021/12/11 01:07:42;;;;;;;17.58;13.25;;;;;;;-0.78;100.00;99815.28;689482;28;3016;-55
2021/12/11 01:08:20;;;;;;;17.03;13.07;;;;;;;-0.78;100.00;99815.28;689985;28;3534;-55
2021/12/11 01:08:45;;;;;;;17.50;12.80;;;;;;;-0.78;100.00;99817.84;685866;28;1072;-54
2021/12/11 01:09:14;;;;;;;17.63;12.95;;;;;;;-0.76;100.00;99812.75;687284;28;1103;-54
2021/12/11 01:09:47;;;;;;;16.60;12.90;;;;;;;-0.73;100.00;99818.00;686406;28;1068;-53
2021/12/11 01:10:21;;;;;;;18.35;12.95;;;;;;;-0.70;100.00;99823.19;684175;28;4546;-52
2021/12/11 01:10:43;;;;;;;16.38;12.45;;;;;;;-0.67;100.00;99825.00;686469;28;3327;-51
2021/12/11 01:11:06;;;;;;;17.23;11.98;;;;;;;-0.66;100.00;99819.91;687189;28;1178;-52
2021/12/11 01:11:44;;;;;;;16.42;11.93;;;;;;;-0.60;100.00;99819.19;686981;28;1365;-54
2021/12/11 01:12:19;;;;;;;15.65;11.68;;;;;;;-0.53;100.00;99816.84;689058;28;1111;-52
2021/12/11 01:12:48;;;;;;;15.00;11.70;;;;;;;-0.48;99.59;99824.66;689530;28;1149;-51
2021/12/11 01:13:10;;;;;;;15.98;11.38;;;;;;;-0.43;99.25;99827.31;689135;28;4499;-52
2021/12/11 01:13:35;;;;;;;14.68;11.70;;;;;;;-0.42;99.06;99821.38;689473;28;3553;-52
2021/12/11 01:14:31;;;;;;;14.77;11.35;;;;;;;-0.38;98.92;99826.63;688324;28;991;-52
2021/12/11 01:15:07;;;;;;;16.73;12.10;;;;;;;-0.43;99.81;99827.31;688002;28;1123;-56
2021/12/11 01:15:35;;;;;;;16.58;12.30;;;;;;;-0.47;100.00;99836.66;685748;28;1065;-52
2021/12/11 01:16:04;;;;;;;15.93;12.75;;;;;;;-0.49;99.77;99837.44;685059;28;4409;-55
2021/12/11 01:16:24;;;;;;;18.48;12.60;;;;;;;-0.50;99.97;99839.13;685158;28;3354;-52
2021/12/11 01:16:52;;;;;;;16.17;12.50;;;;;;;-0.50;99.95;99839.13;685819;28;2545;-52
2021/12/11 01:17:37;;;;;;;16.02;12.40;;;;;;;-0.52;99.99;99844.22;686668;28;2160;-52
2021/12/11 01:18:34;;;;;;;16.73;12.20;;;;;;;-0.52;99.59;99843.38;689929;28;1298;-51
2021/12/11 01:18:48;;;;;;;15.18;11.85;;;;;;;-0.48;99.61;99840.06;689487;28;1681;-53
2021/12/11 01:19:17;;;;;;;14.85;11.63;;;;;;;-0.45;99.02;99842.69;689324;28;4595;-52
2021/12/11 01:19:40;;;;;;;15.30;12.20;;;;;;;-0.44;99.65;99841.88;688094;28;987;-51
2021/12/11 01:20:08;;;;;;;14.55;12.18;;;;;;;-0.44;99.75;99848.72;689265;28;1092;-51
2021/12/11 01:20:52;;;;;;;15.75;12.50;;;;;;;-0.46;100.00;99847.78;688606;28;1230;-51
2021/12/11 01:21:31;;;;;;;15.63;12.40;;;;;;;-0.54;100.00;99850.13;687727;28;2456;-54
2021/12/11 01:21:59;;;;;;;16.25;12.45;;;;;;;-0.54;100.00;99845.00;688517;28;3219;-51
2021/12/11 01:22:34;;;;;;;16.25;12.82;;;;;;;-0.55;100.00;99858.69;689203;28;4789;-55
2021/12/11 01:22:55;;;;;;;17.85;13.18;;;;;;;-0.59;100.00;99860.28;690014;28;1088;-52
2021/12/11 01:24:09;;;;;;;17.80;13.18;;;;;;;-0.59;100.00;99855.16;688852;28;1485;-52
2021/12/11 01:24:44;;;;;;;16.35;13.20;;;;;;;-0.58;100.00;99856.03;689250;28;1078;-51
2021/12/11 01:25:19;;;;;;;17.67;13.45;;;;;;;-0.60;100.00;99858.56;688366;28;4774;-51
2021/12/11 01:25:39;;;;;;;17.30;13.73;;;;;;;-0.61;100.00;99863.66;690722;28;1201;-53
2021/12/11 01:26:05;;;;;;;19.57;13.60;;;;;;;-0.61;100.00;99871.34;690008;28;954;-53
2021/12/11 01:26:25;;;;;;;17.50;13.65;;;;;;;-0.62;100.00;99862.78;690071;28;1629;-52
2021/12/11 01:26:49;;;;;;;17.27;13.50;;;;;;;-0.60;100.00;99870.53;688697;28;1010;-51
2021/12/11 01:27:17;;;;;;;17.42;13.18;;;;;;;-0.58;100.00;99871.44;689485;28;1234;-52
2021/12/11 01:27:41;;;;;;;16.95;13.18;;;;;;;-0.56;100.00;99870.66;689324;28;3525;-53
2021/12/11 01:28:03;;;;;;;17.40;13.30;;;;;;;-0.58;100.00;99869.75;685828;28;5243;-55
2021/12/11 01:28:25;;;;;;;18.70;13.63;;;;;;;-0.59;100.00;99870.56;686675;28;1248;-53
2021/12/11 01:28:46;;;;;;;20.40;13.90;;;;;;;-0.60;100.00;99880.78;687824;28;1644;-52
2021/12/11 01:29:08;;;;;;;16.98;13.45;;;;;;;-0.62;100.00;99878.19;687494;28;1127;-51
2021/12/11 01:29:31;;;;;;;17.30;13.43;;;;;;;-0.62;100.00;99878.19;686630;28;1246;-52
2021/12/11 01:30:00;;;;;;;18.33;13.73;;;;;;;-0.63;100.00;99873.03;687349;28;1808;-53
2021/12/11 01:30:31;;;;;;;18.67;13.82;;;;;;;-0.64;100.00;99877.25;689252;28;3484;-53
2021/12/11 01:30:52;;;;;;;18.10;13.48;;;;;;;-0.62;100.00;99874.72;688323;28;1430;-52
2021/12/11 01:31:17;;;;;;;20.10;14.00;;;;;;;-0.63;100.00;99878.16;688700;28;4530;-52
2021/12/11 01:31:38;;;;;;;20.10;14.63;;;;;;;-0.62;100.00;99882.44;687936;28;1165;-53
2021/12/11 01:31:59;;;;;;;19.75;14.20;;;;;;;-0.64;100.00;99881.53;689846;28;1179;-52
2021/12/11 01:32:19;;;;;;;18.00;14.18;;;;;;;-0.66;100.00;99880.66;689871;28;1432;-53
2021/12/11 01:32:41;;;;;;;17.60;13.57;;;;;;;-0.65;100.00;99890.06;689782;28;1237;-54
2021/12/11 01:33:03;;;;;;;17.55;14.05;;;;;;;-0.62;100.00;99887.56;689443;28;1273;-52
2021/12/11 01:33:24;;;;;;;17.63;13.60;;;;;;;-0.61;100.00;99885.06;689193;28;3092;-51
2021/12/11 01:33:45;;;;;;;16.57;13.33;;;;;;;-0.57;100.00;99891.16;689730;28;1375;-53
2021/12/11 01:34:07;;;;;;;16.80;13.63;;;;;;;-0.55;100.00;99890.38;688074;28;4410;-53
2021/12/11 01:34:29;;;;;;;17.13;13.20;;;;;;;-0.52;100.00;99890.44;688420;28;1317;-53
2021/12/11 01:34:51;;;;;;;17.55;13.23;;;;;;;-0.53;100.00;99895.53;688744;28;1278;-52
2021/12/11 01:35:13;;;;;;;17.75;13.48;;;;;;;-0.55;100.00;99900.63;689082;28;1143;-54
2021/12/11 01:35:33;;;;;;;17.95;14.00;;;;;;;-0.57;100.00;99889.47;689823;28;1238;-53
2021/12/11 01:35:54;;;;;;;19.08;13.57;;;;;;;-0.56;100.00;99893.75;689204;28;1507;-53
2021/12/11 01:36:14;;;;;;;18.87;13.50;;;;;;;-0.52;100.00;99905.84;689419;28;3649;-55
2021/12/11 01:36:35;;;;;;;16.80;12.80;;;;;;;-0.50;100.00;99905.03;688781;28;1409;-54
2021/12/11 01:36:57;;;;;;;16.90;12.85;;;;;;;-0.49;100.00;99905.06;686007;28;4882;-53
2021/12/11 01:37:18;;;;;;;15.63;12.80;;;;;;;-0.46;100.00;99899.16;686910;28;1136;-51
2021/12/11 01:37:40;;;;;;;16.67;12.85;;;;;;;-0.44;100.00;99897.50;686933;28;1200;-51
2021/12/11 01:38:08;;;;;;;17.05;13.23;;;;;;;-0.43;100.00;99894.97;687393;28;970;-55
2021/12/11 01:38:31;;;;;;;17.40;13.90;;;;;;;-0.43;100.00;99909.50;686141;28;1041;-51
2021/12/11 01:38:58;;;;;;;17.50;13.88;;;;;;;-0.45;100.00;99901.75;689975;28;3168;-53
2021/12/11 01:39:23;;;;;;;17.05;14.23;;;;;;;-0.45;100.00;99906.03;688581;28;4026;-56
2021/12/11 01:39:47;;;;;;;18.52;14.35;;;;;;;-0.48;100.00;99909.38;689399;28;975;-51
2021/12/11 01:40:11;;;;;;;18.00;14.20;;;;;;;-0.46;100.00;99905.16;689269;28;4805;-51
2021/12/11 01:40:32;;;;;;;16.20;13.38;;;;;;;-0.44;100.00;99908.66;690368;28;1025;-53
2021/12/11 01:41:01;;;;;;;15.82;13.18;;;;;;;-0.43;100.00;99912.97;690063;28;1110;-51
2021/12/11 01:41:23;;;;;;;17.20;13.13;;;;;;;-0.44;100.00;99918.06;688775;28;1243;-53
2021/12/11 01:41:45;;;;;;;18.05;13.90;;;;;;;-0.47;100.00;99908.56;688787;28;1955;-54
2021/12/11 01:42:19;;;;;;;18.40;14.07;;;;;;;-0.46;100.00;99914.56;689576;28;3659;-53
2021/12/11 01:42:41;;;;;;;17.65;13.98;;;;;;;-0.45;100.00;99909.47;688651;28;1214;-52
2021/12/11 01:43:05;;;;;;;17.55;13.73;;;;;;;-0.42;100.00;99912.09;686133;28;5129;-52
2021/12/11 01:43:29;;;;;;;18.30;13.45;;;;;;;-0.42;100.00;99914.69;686735;28;1210;-54
2021/12/11 01:43:53;;;;;;;18.30;13.80;;;;;;;-0.42;100.00;99912.09;685848;28;1220;-53
2021/12/11 01:44:18;;;;;;;18.00;13.88;;;;;;;-0.42;100.00;99919.81;685903;28;1211;-53
2021/12/11 01:44:40;;;;;;;18.10;13.73;;;;;;;-0.43;100.00;99912.97;685563;28;3388;-54
2021/12/11 01:45:04;;;;;;;19.17;14.15;;;;;;;-0.42;100.00;99916.38;689790;28;1282;-52
2021/12/11 01:45:25;;;;;;;20.85;14.60;;;;;;;-0.40;100.00;99914.72;689703;28;1033;-53
2021/12/11 01:45:49;;;;;;;19.17;13.80;;;;;;;-0.38;100.00;99924.22;689401;28;1202;-52
2021/12/11 01:46:10;;;;;;;17.50;13.25;;;;;;;-0.33;100.00;99915.75;688613;28;4341;-53
2021/12/11 01:46:31;;;;;;;17.58;13.45;;;;;;;-0.30;100.00;99916.72;689051;28;1247;-54
2021/12/11 01:47:03;;;;;;;17.47;13.80;;;;;;;-0.23;100.00;99918.63;688738;28;1210;-51
2021/12/11 01:47:32;;;;;;;16.45;13.20;;;;;;;-0.21;100.00;99921.22;688380;28;1998;-51
2021/12/11 01:47:53;;;;;;;17.05;13.77;;;;;;;-0.23;100.00;99926.34;688821;28;1470;-53
2021/12/11 01:48:31;;;;;;;17.63;14.00;;;;;;;-0.27;100.00;99926.22;689178;28;1210;-53
2021/12/11 01:48:58;;;;;;;19.90;14.50;;;;;;;-0.29;100.00;99927.84;690067;28;1096;-52
2021/12/11 01:49:21;;;;;;;17.45;14.32;;;;;;;-0.32;100.00;99930.34;689676;28;4941;-51
2021/12/11 01:49:44;;;;;;;16.77;14.07;;;;;;;-0.33;100.00;99926.91;689665;28;1088;-52
2021/12/11 01:50:14;;;;;;;19.15;15.02;;;;;;;-0.33;100.00;99936.31;687502;28;947;-52
2021/12/11 01:50:39;;;;;;;18.98;14.43;;;;;;;-0.35;100.00;99934.59;686008;28;3446;-53
2021/12/11 01:51:28;;;;;;;18.58;14.68;;;;;;;-0.31;100.00;99929.53;686536;28;1462;-55
2021/12/11 01:51:58;;;;;;;17.20;13.23;;;;;;;-0.29;100.00;99935.56;679829;28;1251;-54
2021/12/11 01:52:34;;;;;;;17.45;13.77;;;;;;;-0.30;100.00;99936.41;676657;28;4972;-52
2021/12/11 01:53:01;;;;;;;19.50;14.80;;;;;;;-0.30;100.00;99936.41;684165;28;1333;-50
2021/12/11 01:53:34;;;;;;;17.83;15.15;;;;;;;-0.31;100.00;99932.94;683164;28;3494;-55
2021/12/11 01:54:12;;;;;;;17.88;14.30;;;;;;;-0.33;100.00;99937.19;681507;28;1278;-52
2021/12/11 01:54:37;;;;;;;19.80;14.40;;;;;;;-0.32;100.00;99938.91;684668;28;1092;-53
2021/12/11 01:54:59;;;;;;;19.10;14.90;;;;;;;-0.30;100.00;99944.13;687268;28;4688;-54
2021/12/11 01:55:42;;;;;;;18.00;14.63;;;;;;;-0.30;100.00;99944.13;687099;28;1151;-52
2021/12/11 01:56:13;;;;;;;18.27;14.57;;;;;;;-0.31;100.00;99944.94;689204;28;3413;-57
2021/12/11 01:56:34;;;;;;;18.52;14.30;;;;;;;-0.30;100.00;99946.69;689027;28;1263;-51
2021/12/11 01:57:00;;;;;;;17.85;13.85;;;;;;;-0.29;100.00;99948.41;689429;28;1266;-51
2021/12/11 01:57:25;;;;;;;16.98;13.77;;;;;;;-0.28;100.00;99945.88;685545;28;1084;-51
2021/12/11 01:57:50;;;;;;;18.98;14.25;;;;;;;-0.25;100.00;99952.81;685504;28;1040;-55
2021/12/11 01:58:14;;;;;;;16.42;13.20;;;;;;;-0.24;100.00;99951.97;684549;28;4408;-51
2021/12/11 01:58:42;;;;;;;17.25;13.65;;;;;;;-0.25;100.00;99950.22;687080;28;1291;-51
2021/12/11 01:59:26;;;;;;;16.80;13.13;;;;;;;-0.21;99.83;99952.06;687043;28;3567;-54
2021/12/11 01:59:53;;;;;;;16.33;14.00;;;;;;;-0.18;99.61;99959.84;689008;28;1123;-51
2021/12/11 02:00:23;;;;;;;17.00;13.23;;;;;;;-0.16;99.35;99952.22;688836;28;1340;-52
2021/12/11 02:00:48;;;;;;;17.67;13.65;;;;;;;-0.15;99.05;99962.53;688671;28;1143;-52
2021/12/11 02:01:37;;;;;;;19.63;13.75;;;;;;;-0.15;98.77;99961.63;688637;28;4945;-53
2021/12/11 02:02:10;;;;;;;17.55;13.25;;;;;;;-0.14;98.48;99960.81;677772;28;2006;-55
2021/12/11 02:02:37;;;;;;;16.65;13.40;;;;;;;-0.13;98.36;99965.97;684051;28;1968;-51
2021/12/11 02:03:01;;;;;;;19.67;13.90;;;;;;;-0.14;99.41;99964.22;686585;28;1218;-53
2021/12/11 02:03:27;;;;;;;17.48;14.15;;;;;;;-0.14;100.00;99963.38;686436;28;1135;-52
2021/12/11 02:03:51;;;;;;;19.45;14.93;;;;;;;-0.14;100.00;99965.94;688687;28;1791;-54
2021/12/11 02:04:15;;;;;;;19.95;14.98;;;;;;;-0.14;100.00;99969.38;689518;28;4547;-55
2021/12/11 02:04:42;;;;;;;18.02;15.13;;;;;;;-0.15;100.00;99972.78;688572;28;3282;-51